Time;durP1;ratioP1;P1;durP2;ratioP2;P2;SDS_P1;SDS_P2;PMS_P1;PMS_P2;Temp;Humidity;BMP_temperature;BMP_pressure;BME280_temperature;BME280_humidity;BME280_pressure;Samples;Min_cycle;Max_cycle;Signal;HPM_P1;HPM_P2
2022/11/28 00:02:14;;;;;;;17.15;10.98;;;6.20;99.90;;;;;;5133386;27;20486;-46
2022/11/28 00:04:40;;;;;;;18.45;10.55;;;6.10;99.90;;;;;;5133306;27;20039;-47
2022/11/28 00:07:06;;;;;;;15.75;10.45;;;6.20;99.90;;;;;;5133176;27;20031;-47
2022/11/28 00:09:32;;;;;;;17.17;10.93;;;6.20;99.90;;;;;;5133563;27;20039;-46
2022/11/28 00:11:57;;;;;;;16.35;10.68;;;6.40;99.90;;;;;;5132764;27;20027;-48
2022/11/28 00:14:23;;;;;;;16.05;10.95;;;6.50;99.90;;;;;;5130218;27;20486;-46
2022/11/28 00:16:49;;;;;;;19.05;10.95;;;6.20;99.90;;;;;;5131867;27;20050;-49
2022/11/28 00:19:15;;;;;;;18.55;12.05;;;6.30;99.90;;;;;;5133085;27;20046;-47
2022/11/28 00:21:41;;;;;;;17.95;11.52;;;6.40;99.90;;;;;;5114695;27;20470;-46
2022/11/28 00:24:08;;;;;;;17.58;11.90;;;6.80;99.90;;;;;;5133126;27;20043;-49
2022/11/28 00:26:39;;;;;;;19.17;11.68;;;6.40;99.90;;;;;;5132562;27;20121;-47
2022/11/28 00:29:07;;;;;;;18.30;11.38;;;6.50;99.90;;;;;;5114196;27;20360;-48
2022/11/28 00:31:41;;;;;;;17.60;11.60;;;6.20;99.90;;;;;;5133124;27;20039;-48
2022/11/28 00:34:08;;;;;;;18.95;11.80;;;6.50;99.90;;;;;;5114377;27;20497;-49
2022/11/28 00:36:34;;;;;;;16.17;11.32;;;6.00;99.90;;;;;;5131447;27;20121;-51
2022/11/28 00:39:00;;;;;;;15.40;10.82;;;6.50;99.90;;;;;;5132657;27;20560;-48
2022/11/28 00:41:28;;;;;;;17.40;11.73;;;6.30;99.90;;;;;;5113514;27;20047;-49
2022/11/28 00:43:54;;;;;;;16.05;10.77;;;6.00;99.90;;;;;;5132926;27;20031;-50
2022/11/28 00:46:21;;;;;;;17.50;10.95;;;6.10;99.90;;;;;;5132344;27;20147;-47
2022/11/28 00:48:48;;;;;;;18.73;10.95;;;6.40;99.90;;;;;;5132086;27;20082;-51
2022/11/28 00:51:17;;;;;;;15.70;10.95;;;6.40;99.90;;;;;;5132319;27;20044;-47
2022/11/28 00:53:44;;;;;;;20.15;11.05;;;6.40;99.90;;;;;;5132629;27;20050;-47
2022/11/28 00:56:16;;;;;;;17.08;10.82;;;6.10;99.90;;;;;;5113651;27;20082;-49
2022/11/28 00:58:42;;;;;;;19.08;11.68;;;6.50;99.90;;;;;;5131554;27;20390;-49
2022/11/28 01:01:13;;;;;;;17.27;10.32;;;6.50;99.90;;;;;;5132105;27;20412;-47
2022/11/28 01:03:39;;;;;;;19.25;11.02;;;6.60;99.90;;;;;;5113742;27;20027;-51
2022/11/28 01:06:06;;;;;;;18.77;11.00;;;6.20;99.90;;;;;;5132201;27;20603;-46
2022/11/28 01:08:32;;;;;;;16.30;11.50;;;6.20;99.90;;;;;;5132294;27;20050;-45
2022/11/28 01:10:58;;;;;;;18.13;11.52;;;6.60;99.90;;;;;;5131608;27;20035;-46
2022/11/28 01:13:24;;;;;;;17.05;11.43;;;6.20;99.90;;;;;;5132089;27;20027;-46
2022/11/28 01:15:49;;;;;;;21.83;12.23;;;6.40;99.90;;;;;;5131685;27;20406;-46
2022/11/28 01:18:15;;;;;;;18.35;12.38;;;6.70;99.90;;;;;;5113347;27;20031;-46
2022/11/28 01:20:41;;;;;;;20.00;12.02;;;6.20;99.90;;;;;;5131916;27;20080;-46
2022/11/28 01:23:06;;;;;;;20.02;12.10;;;6.30;99.90;;;;;;5131886;27;20490;-47
2022/11/28 01:25:32;;;;;;;23.02;12.93;;;6.20;99.90;;;;;;5113253;27;20031;-47
2022/11/28 01:27:58;;;;;;;22.17;13.70;;;6.60;99.90;;;;;;5131415;27;20057;-48
2022/11/28 01:30:24;;;;;;;18.70;12.18;;;6.20;99.90;;;;;;5131366;27;20043;-48
2022/11/28 01:32:49;;;;;;;20.38;13.50;;;6.50;99.90;;;;;;5131633;27;20088;-47
2022/11/28 01:35:15;;;;;;;21.00;13.60;;;6.60;99.90;;;;;;5131694;27;20075;-51
2022/11/28 01:37:41;;;;;;;19.75;13.73;;;6.70;99.90;;;;;;5131715;27;20038;-47
2022/11/28 01:40:09;;;;;;;23.55;13.88;;;6.30;99.90;;;;;;5131586;27;20064;-46
2022/11/28 01:42:35;;;;;;;23.55;13.20;;;6.30;99.90;;;;;;5131144;27;20027;-50
2022/11/28 01:45:12;;;;;;;22.65;14.05;;;6.20;99.90;;;;;;5131305;27;20035;-48
2022/11/28 01:47:38;;;;;;;21.13;12.90;;;6.30;99.90;;;;;;5131146;27;20043;-47
2022/11/28 01:50:05;;;;;;;18.45;13.32;;;6.70;99.90;;;;;;5131367;27;20575;-45
2022/11/28 01:52:33;;;;;;;17.45;12.13;;;6.60;99.90;;;;;;5131168;27;20042;-46
2022/11/28 01:55:02;;;;;;;17.40;13.05;;;6.50;99.90;;;;;;5094202;27;20039;-48
2022/11/28 01:57:28;;;;;;;22.70;12.40;;;6.30;99.90;;;;;;5131236;27;20470;-47
2022/11/28 02:00:13;;;;;;;19.73;13.38;;;6.70;99.90;;;;;;5131020;27;20042;-49
2022/11/28 02:02:44;;;;;;;;;;;6.70;99.90;;;;;;5130329;27;20427;-50
2022/11/28 02:05:11;;;;;;;18.52;10.95;;;6.30;99.90;;;;;;5095281;27;19923;-47
2022/11/28 02:07:37;;;;;;;20.35;13.02;;;6.30;99.90;;;;;;5131026;27;20039;-49
2022/11/28 02:10:08;;;;;;;18.45;13.25;;;6.50;99.90;;;;;;5131045;27;20462;-48
2022/11/28 02:13:02;;;;;;;23.83;13.85;;;6.70;99.90;;;;;;5130575;27;20091;-47
2022/11/28 02:15:53;;;;;;;22.77;14.10;;;6.30;99.90;;;;;;5115869;27;20039;-47
2022/11/28 02:18:47;;;;;;;22.60;14.98;;;6.30;99.90;;;;;;5130565;27;20092;-49
2022/11/28 02:21:23;;;;;;;20.02;14.10;;;6.40;99.90;;;;;;5130284;27;20062;-46
2022/11/28 02:24:17;;;;;;;24.15;14.45;;;6.70;99.90;;;;;;5130752;27;20034;-46
2022/11/28 02:27:06;;;;;;;22.00;15.35;;;6.40;99.90;;;;;;5130480;27;20055;-47
2022/11/28 02:29:42;;;;;;;28.70;16.30;;;6.20;99.90;;;;;;5114329;27;20104;-45
2022/11/28 02:32:22;;;;;;;23.33;16.17;;;6.40;99.90;;;;;;5130569;27;20050;-46
2022/11/28 02:34:57;;;;;;;29.90;17.70;;;6.70;99.90;;;;;;5129242;27;20073;-46
2022/11/28 02:37:33;;;;;;;33.78;18.08;;;6.90;99.90;;;;;;5130505;27;20046;-46
2022/11/28 02:40:21;;;;;;;28.95;17.52;;;6.90;99.90;;;;;;5130164;27;20126;-48
2022/11/28 02:42:58;;;;;;;27.67;17.25;;;6.50;99.90;;;;;;5130089;27;20048;-49
2022/11/28 02:45:49;;;;;;;29.77;18.75;;;6.90;99.90;;;;;;5130485;27;20046;-48
2022/11/28 02:48:48;;;;;;;23.70;16.85;;;6.90;99.90;;;;;;5128864;27;20126;-46
2022/11/28 02:51:23;;;;;;;31.20;19.05;;;6.30;99.90;;;;;;5124947;28;20095;-46
2022/11/28 02:53:51;;;;;;;30.70;18.77;;;7.00;99.90;;;;;;5130475;28;20516;-46
2022/11/28 02:56:17;;;;;;;28.17;19.25;;;6.40;99.90;;;;;;5130465;28;20039;-48
2022/11/28 02:58:42;;;;;;;29.95;19.30;;;7.20;99.90;;;;;;5130138;28;20053;-46
2022/11/28 03:01:30;;;;;;;30.92;20.05;;;6.50;99.90;;;;;;5130080;28;20043;-47
2022/11/28 03:04:30;;;;;;;28.02;19.92;;;6.40;99.90;;;;;;5130113;28;20039;-46
2022/11/28 03:07:19;;;;;;;31.30;20.17;;;6.50;99.90;;;;;;5130150;28;20031;-47
2022/11/28 03:09:45;;;;;;;35.47;20.58;;;6.80;99.90;;;;;;5128556;27;20038;-46
2022/11/28 03:12:23;;;;;;;35.10;20.83;;;6.60;99.90;;;;;;5115414;27;20031;-45
2022/11/28 03:14:55;;;;;;;32.88;19.92;;;6.70;99.90;;;;;;5134573;27;20035;-48
2022/11/28 03:17:26;;;;;;;32.50;20.25;;;7.20;99.90;;;;;;5134293;27;20083;-46
2022/11/28 03:20:23;;;;;;;28.90;19.52;;;6.50;99.90;;;;;;5134093;27;20119;-46
2022/11/28 03:23:10;;;;;;;30.73;19.60;;;7.30;99.90;;;;;;5085471;27;20051;-46
2022/11/28 03:25:39;;;;;;;31.45;19.00;;;7.00;99.90;;;;;;5134361;27;20057;-48
2022/11/28 03:28:33;;;;;;;31.17;19.40;;;6.60;99.90;;;;;;5115429;27;20367;-46
2022/11/28 03:31:03;;;;;;;31.35;20.75;;;7.00;99.90;;;;;;5132783;27;20051;-48
2022/11/28 03:33:33;;;;;;;32.47;20.42;;;7.30;99.90;;;;;;5133642;27;20035;-48
2022/11/28 03:36:06;;;;;;;30.33;18.67;;;7.50;99.90;;;;;;5133596;27;20042;-47
2022/11/28 03:38:41;;;;;;;27.63;19.23;;;6.80;99.90;;;;;;5134153;27;20027;-48
2022/11/28 03:41:19;;;;;;;30.85;19.58;;;6.70;99.90;;;;;;5133039;27;20070;-48
2022/11/28 03:43:55;;;;;;;31.52;18.67;;;7.50;99.90;;;;;;5133980;27;20062;-48
2022/11/28 03:46:25;;;;;;;27.55;18.20;;;7.50;99.90;;;;;;5132234;27;20501;-47
2022/11/28 03:48:55;;;;;;;32.00;19.35;;;7.00;99.90;;;;;;5133650;27;20110;-49
2022/11/28 03:51:28;;;;;;;32.40;20.42;;;7.10;99.90;;;;;;5133603;27;20051;-48
2022/11/28 03:54:01;;;;;;;37.55;21.70;;;7.30;99.90;;;;;;5133427;27;20035;-51
2022/11/28 03:56:38;;;;;;;33.05;20.83;;;6.70;99.90;;;;;;5097102;27;20122;-46
2022/11/28 03:59:11;;;;;;;31.50;20.02;;;7.40;99.90;;;;;;5133725;27;20087;-51
2022/11/28 04:02:05;;;;;;;32.92;21.20;;;6.90;99.90;;;;;;5114788;27;20051;-49
2022/11/28 04:04:58;;;;;;;32.17;20.90;;;6.70;99.90;;;;;;5133012;27;20054;-47
2022/11/28 04:07:37;;;;;;;31.55;21.02;;;6.70;99.90;;;;;;5133406;27;20035;-46
2022/11/28 04:10:34;;;;;;;32.65;21.77;;;6.80;99.90;;;;;;5133470;27;20483;-46
2022/11/28 04:13:18;;;;;;;31.63;21.05;;;6.80;99.90;;;;;;5132083;27;20035;-48
2022/11/28 04:15:52;;;;;;;28.00;19.42;;;7.20;99.90;;;;;;5133306;27;20076;-46
2022/11/28 04:18:33;;;;;;;27.70;18.65;;;7.00;99.90;;;;;;5132925;27;20050;-45
2022/11/28 04:21:15;;;;;;;25.98;18.90;;;7.50;99.90;;;;;;5133087;27;20079;-47
2022/11/28 04:23:43;;;;;;;26.80;19.38;;;7.40;99.90;;;;;;5132280;27;20035;-49
2022/11/28 04:26:26;;;;;;;28.55;19.45;;;7.50;99.90;;;;;;5132999;27;20032;-47
2022/11/28 04:28:54;;;;;;;28.38;18.67;;;6.90;99.90;;;;;;5132228;27;20032;-47
2022/11/28 04:31:21;;;;;;;26.05;19.00;;;7.30;99.90;;;;;;5132603;27;20055;-49
2022/11/28 04:33:53;;;;;;;26.38;19.17;;;7.50;99.90;;;;;;5131638;27;20470;-46
2022/11/28 04:36:21;;;;;;;27.08;18.33;;;6.90;99.90;;;;;;5131490;27;20086;-51
2022/11/28 04:38:54;;;;;;;26.70;18.90;;;6.90;99.90;;;;;;5132674;27;20127;-47
2022/11/28 04:41:50;;;;;;;30.80;19.80;;;7.00;99.90;;;;;;5132339;27;20448;-50
2022/11/28 04:44:28;;;;;;;27.38;19.05;;;7.60;99.90;;;;;;5132374;27;20047;-47
2022/11/28 04:46:55;;;;;;;28.92;20.38;;;7.60;99.90;;;;;;5132165;27;20084;-48
2022/11/28 04:49:22;;;;;;;29.75;20.50;;;7.50;99.90;;;;;;5132765;27;20038;-48
2022/11/28 04:52:11;;;;;;;26.58;19.92;;;7.30;99.90;;;;;;5132119;27;20035;-48
2022/11/28 04:54:50;;;;;;;28.02;19.30;;;6.90;99.90;;;;;;5113883;27;20043;-47
2022/11/28 04:57:45;;;;;;;27.27;19.65;;;7.40;99.90;;;;;;5132833;27;20050;-46
2022/11/28 05:00:15;;;;;;;29.40;20.80;;;7.50;99.90;;;;;;5133310;27;20153;-45
2022/11/28 05:02:43;;;;;;;32.15;22.50;;;6.90;99.90;;;;;;5132600;27;20470;-48
2022/11/28 05:05:17;;;;;;;31.52;21.17;;;7.50;99.90;;;;;;5130852;27;20043;-48
2022/11/28 05:07:43;;;;;;;35.65;23.17;;;7.40;99.90;;;;;;5132272;27;20043;-46
2022/11/28 05:10:11;;;;;;;32.90;21.50;;;7.00;99.90;;;;;;5132235;27;20035;-48
2022/11/28 05:12:36;;;;;;;33.17;21.70;;;7.50;99.90;;;;;;5131351;27;20043;-47
2022/11/28 05:15:03;;;;;;;27.90;19.80;;;7.10;99.90;;;;;;5130857;27;20038;-50
2022/11/28 05:17:29;;;;;;;28.83;19.90;;;6.90;99.90;;;;;;5132092;27;20035;-46
2022/11/28 05:19:55;;;;;;;32.33;20.85;;;7.20;99.90;;;;;;5113366;27;20038;-48
2022/11/28 05:22:20;;;;;;;26.42;19.83;;;7.50;99.90;;;;;;5113365;27;20105;-46
2022/11/28 05:24:46;;;;;;;29.35;19.55;;;7.00;99.90;;;;;;5131838;27;20039;-49
2022/11/28 05:27:11;;;;;;;29.35;19.25;;;7.70;99.90;;;;;;5131938;27;20074;-47
2022/11/28 05:29:42;;;;;;;27.40;18.20;;;7.00;99.90;;;;;;5131179;27;20043;-47
2022/11/28 05:32:11;;;;;;;25.42;18.35;;;7.00;99.90;;;;;;5132454;27;20089;-48
2022/11/28 05:34:37;;;;;;;23.33;17.33;;;7.00;99.90;;;;;;5131808;27;20046;-46
2022/11/28 05:37:03;;;;;;;27.27;17.30;;;7.00;99.90;;;;;;5131443;27;20051;-47
2022/11/28 05:39:29;;;;;;;22.75;17.05;;;7.70;99.90;;;;;;5131719;27;20047;-47
2022/11/28 05:41:56;;;;;;;24.67;16.95;;;7.00;99.90;;;;;;5131122;27;20045;-48
2022/11/28 05:44:21;;;;;;;23.27;16.80;;;7.60;99.90;;;;;;5131293;27;20070;-46
2022/11/28 05:46:47;;;;;;;22.13;15.52;;;7.30;99.90;;;;;;5131241;27;20063;-47
2022/11/28 05:49:13;;;;;;;24.45;15.30;;;7.40;99.90;;;;;;5131575;27;20041;-46
2022/11/28 05:51:39;;;;;;;22.85;15.32;;;7.50;99.90;;;;;;5131305;27;20389;-49
2022/11/28 05:54:04;;;;;;;24.80;15.07;;;7.70;99.90;;;;;;5131165;27;20038;-47
2022/11/28 05:56:30;;;;;;;19.40;14.70;;;7.10;99.90;;;;;;5113189;27;20070;-47
2022/11/28 05:58:56;;;;;;;21.00;15.15;;;7.80;99.90;;;;;;5113462;27;20103;-46
2022/11/28 06:01:27;;;;;;;22.67;16.08;;;7.20;99.90;;;;;;5131500;27;20557;-48
2022/11/28 06:03:58;;;;;;;21.48;14.93;;;7.80;99.90;;;;;;5130718;27;20046;-47
2022/11/28 06:06:29;;;;;;;22.83;15.18;;;7.20;99.90;;;;;;5130212;27;20050;-48
2022/11/28 06:08:55;;;;;;;24.60;15.68;;;7.10;99.90;;;;;;5110289;27;20027;-47
2022/11/28 06:11:22;;;;;;;24.02;16.70;;;7.40;99.90;;;;;;5130763;27;20024;-46
2022/11/28 06:13:49;;;;;;;22.63;16.63;;;7.10;99.90;;;;;;5130861;27;20381;-48
2022/11/28 06:16:18;;;;;;;22.40;15.88;;;7.40;99.90;;;;;;5130781;27;20043;-51
2022/11/28 06:18:43;;;;;;;25.83;17.50;;;7.60;99.90;;;;;;5130711;27;20116;-48
2022/11/28 06:21:11;;;;;;;24.50;17.10;;;7.50;99.90;;;;;;5130472;27;20043;-47
2022/11/28 06:23:37;;;;;;;23.08;16.27;;;7.70;99.90;;;;;;5112324;27;20095;-47
2022/11/28 06:26:12;;;;;;;25.02;17.45;;;7.20;99.90;;;;;;5130805;27;20118;-49
2022/11/28 06:28:38;;;;;;;23.85;17.23;;;7.10;99.90;;;;;;5130795;27;20034;-48
2022/11/28 06:31:08;;;;;;;22.33;16.95;;;7.40;99.90;;;;;;5130270;27;20065;-50
2022/11/28 06:33:33;;;;;;;24.20;17.55;;;7.60;99.90;;;;;;5131068;27;20470;-46
2022/11/28 06:36:04;;;;;;;24.85;17.70;;;7.70;99.90;;;;;;5130606;27;20038;-48
2022/11/28 06:38:30;;;;;;;24.40;17.63;;;7.40;99.90;;;;;;5130721;27;20034;-49
2022/11/28 06:41:03;;;;;;;22.98;17.10;;;7.80;99.90;;;;;;5130702;27;20394;-47
2022/11/28 06:43:29;;;;;;;23.85;17.33;;;7.70;99.90;;;;;;5129100;27;20037;-48
2022/11/28 06:45:55;;;;;;;23.00;17.35;;;7.30;99.90;;;;;;5111173;27;20039;-46
2022/11/28 06:48:21;;;;;;;23.10;17.08;;;7.70;99.90;;;;;;5130389;27;20104;-46
2022/11/28 06:50:47;;;;;;;24.42;17.33;;;7.20;99.90;;;;;;5128856;28;20440;-46
2022/11/28 06:53:13;;;;;;;21.17;16.92;;;7.70;99.90;;;;;;5130853;28;20118;-49
2022/11/28 06:55:39;;;;;;;23.65;17.30;;;7.20;99.90;;;;;;5131021;28;20035;-48
2022/11/28 06:58:05;;;;;;;26.48;17.88;;;7.80;99.90;;;;;;5110320;28;20051;-47
2022/11/28 07:00:31;;;;;;;25.58;17.73;;;7.80;99.90;;;;;;5130212;28;20062;-49
2022/11/28 07:02:57;;;;;;;25.52;18.63;;;7.20;99.90;;;;;;5130367;28;20039;-46
2022/11/28 07:05:26;;;;;;;27.77;18.35;;;7.20;99.90;;;;;;5130423;28;20455;-47
2022/11/28 07:07:53;;;;;;;24.83;17.40;;;7.50;99.90;;;;;;5130036;28;20042;-45
2022/11/28 07:10:19;;;;;;;21.88;16.48;;;7.80;99.90;;;;;;5130246;28;20062;-46
2022/11/28 07:12:45;;;;;;;25.85;17.88;;;7.70;99.90;;;;;;5129480;28;20027;-47
2022/11/28 07:15:11;;;;;;;25.85;17.88;;;7.60;99.90;;;;;;5130292;28;20116;-46
2022/11/28 07:17:37;;;;;;;26.08;18.50;;;7.40;99.90;;;;;;5130319;28;20585;-46
2022/11/28 07:20:04;;;;;;;27.33;18.60;;;7.10;99.90;;;;;;5129804;28;20035;-46
2022/11/28 07:22:29;;;;;;;27.65;18.48;;;7.20;99.90;;;;;;5128709;28;20035;-47
2022/11/28 07:24:55;;;;;;;27.58;17.60;;;7.80;99.90;;;;;;5129754;28;20042;-48
2022/11/28 07:27:21;;;;;;;26.45;18.05;;;7.10;99.90;;;;;;5130083;28;20039;-49
2022/11/28 07:29:46;;;;;;;25.73;18.30;;;7.80;99.90;;;;;;5129684;28;20051;-47
2022/11/28 07:32:12;;;;;;;22.73;17.10;;;7.60;99.90;;;;;;5129647;28;20550;-48
2022/11/28 07:34:40;;;;;;;24.45;17.77;;;7.80;99.90;;;;;;5111365;28;20046;-48
2022/11/28 07:37:05;;;;;;;24.42;17.60;;;7.70;99.90;;;;;;5129734;28;20039;-46
2022/11/28 07:39:31;;;;;;;24.55;17.58;;;7.20;99.90;;;;;;5129905;28;20047;-48
2022/11/28 07:41:57;;;;;;;33.42;18.05;;;7.70;99.90;;;;;;5129611;28;20041;-47
2022/11/28 07:44:23;;;;;;;23.73;16.60;;;7.30;99.90;;;;;;5130058;28;20043;-48
2022/11/28 07:46:48;;;;;;;23.50;16.05;;;7.30;99.90;;;;;;5129540;28;20390;-50
2022/11/28 07:49:14;;;;;;;22.05;16.42;;;7.60;99.90;;;;;;5129473;28;20042;-46
2022/11/28 07:51:40;;;;;;;23.63;16.60;;;7.80;99.90;;;;;;5129785;28;20404;-48
2022/11/28 07:54:07;;;;;;;23.45;16.17;;;7.10;99.90;;;;;;5129934;28;20039;-49
2022/11/28 07:56:35;;;;;;;24.13;16.23;;;8.00;99.90;;;;;;5112817;27;20035;-49
2022/11/28 07:59:01;;;;;;;22.75;15.80;;;7.20;99.90;;;;;;5134400;27;20035;-49
2022/11/28 08:01:31;;;;;;;23.67;16.33;;;7.80;99.90;;;;;;5133939;27;20099;-49
2022/11/28 08:03:58;;;;;;;24.35;17.23;;;7.50;99.90;;;;;;5133543;27;20474;-47
2022/11/28 08:06:27;;;;;;;22.75;15.13;;;6.90;99.90;;;;;;5133488;27;20039;-47
2022/11/28 08:08:54;;;;;;;24.35;16.30;;;7.20;99.90;;;;;;5115142;27;20367;-47
2022/11/28 08:11:23;;;;;;;23.42;16.55;;;7.70;99.90;;;;;;5115045;27;20023;-47
2022/11/28 08:13:49;;;;;;;22.95;16.08;;;7.50;99.90;;;;;;5114351;27;20035;-48
2022/11/28 08:16:18;;;;;;;22.02;15.82;;;7.70;99.90;;;;;;5133226;27;20478;-48
2022/11/28 08:18:44;;;;;;;22.25;15.02;;;7.10;99.90;;;;;;5133350;27;20031;-45
2022/11/28 08:21:12;;;;;;;21.83;15.27;;;7.80;99.90;;;;;;5131818;27;20039;-46
2022/11/28 08:23:39;;;;;;;21.17;15.63;;;7.30;99.90;;;;;;5129080;27;20046;-45
2022/11/28 08:26:09;;;;;;;21.33;14.98;;;7.80;99.90;;;;;;5132459;27;20035;-46
2022/11/28 08:28:36;;;;;;;21.95;15.50;;;7.80;99.90;;;;;;5126958;27;20138;-48
2022/11/28 08:31:09;;;;;;;22.42;15.77;;;7.20;99.90;;;;;;5131270;27;20061;-46
2022/11/28 08:33:35;;;;;;;18.63;14.13;;;7.20;99.90;;;;;;5133422;27;20038;-46
2022/11/28 08:36:06;;;;;;;24.35;15.65;;;7.70;99.90;;;;;;5126637;27;20486;-46
2022/11/28 08:38:32;;;;;;;24.02;15.90;;;7.40;99.90;;;;;;5117805;27;21049;-46
2022/11/28 08:41:12;;;;;;;18.90;14.65;;;7.60;99.90;;;;;;5120958;27;20043;-47
2022/11/28 08:43:38;;;;;;;22.60;15.63;;;7.90;99.90;;;;;;5119679;27;20035;-47
2022/11/28 08:46:05;;;;;;;20.52;15.15;;;7.90;99.90;;;;;;5119308;27;20035;-48
2022/11/28 08:48:31;;;;;;;19.20;14.02;;;7.40;99.90;;;;;;5118318;27;20031;-46
2022/11/28 08:50:57;;;;;;;21.13;15.52;;;7.30;99.90;;;;;;5121113;27;20027;-48
2022/11/28 08:53:23;;;;;;;21.00;15.05;;;7.60;99.90;;;;;;5100205;27;20039;-47
2022/11/28 08:55:48;;;;;;;21.55;15.13;;;7.50;99.90;;;;;;5117516;27;20046;-48
2022/11/28 08:58:14;;;;;;;23.02;15.32;;;7.30;99.90;;;;;;5119548;27;20126;-48
2022/11/28 09:00:41;;;;;;;22.02;15.55;;;7.30;99.90;;;;;;5098718;27;20043;-47
2022/11/28 09:03:11;;;;;;;20.63;14.80;;;7.50;99.90;;;;;;5118369;27;20044;-49
2022/11/28 09:05:37;;;;;;;20.98;15.40;;;7.30;99.90;;;;;;5119103;27;20035;-48
2022/11/28 09:08:03;;;;;;;21.40;15.27;;;8.00;99.90;;;;;;5116397;27;20047;-47
2022/11/28 09:10:29;;;;;;;22.67;15.63;;;7.50;99.90;;;;;;5099956;27;20039;-49
2022/11/28 09:12:55;;;;;;;21.15;14.98;;;7.80;99.90;;;;;;5100859;27;20095;-46
2022/11/28 09:15:20;;;;;;;20.27;14.52;;;7.40;99.90;;;;;;5100328;27;20027;-47
2022/11/28 09:17:46;;;;;;;21.48;14.52;;;7.90;99.90;;;;;;5120404;27;20042;-49
2022/11/28 09:20:12;;;;;;;20.25;14.20;;;8.20;99.90;;;;;;5103506;27;20031;-47
2022/11/28 09:22:39;;;;;;;22.85;15.77;;;7.40;99.90;;;;;;5122204;27;20438;-50
2022/11/28 09:25:05;;;;;;;21.38;15.48;;;7.80;99.90;;;;;;5121873;27;20046;-47
2022/11/28 09:27:31;;;;;;;23.95;15.88;;;8.20;99.90;;;;;;5121331;27;20050;-48
2022/11/28 09:29:57;;;;;;;23.42;15.35;;;7.50;99.90;;;;;;5120616;27;20051;-52
2022/11/28 09:32:22;;;;;;;20.60;14.75;;;8.30;99.90;;;;;;5119847;27;20120;-48
2022/11/28 09:34:50;;;;;;;22.77;15.55;;;7.90;99.90;;;;;;5121259;27;20038;-47
2022/11/28 09:37:15;;;;;;;23.48;15.77;;;8.10;99.90;;;;;;5099325;27;20042;-47
2022/11/28 09:39:41;;;;;;;23.20;15.52;;;7.60;99.90;;;;;;5120944;27;20043;-47
2022/11/28 09:42:33;;;;;;;21.88;14.40;;;7.60;99.90;;;;;;5117587;27;20067;-46
2022/11/28 09:45:06;;;;;;;25.02;15.63;;;7.60;99.90;;;;;;5118469;27;20045;-47
2022/11/28 09:47:35;;;;;;;18.70;13.53;;;7.60;99.90;;;;;;5118865;27;20050;-47
2022/11/28 09:50:26;;;;;;;22.13;14.90;;;7.60;99.90;;;;;;5117962;27;20047;-47
2022/11/28 09:53:01;;;;;;;19.42;13.45;;;8.20;99.90;;;;;;5109470;27;20486;-51
2022/11/28 09:55:41;;;;;;;22.27;14.93;;;8.20;99.90;;;;;;5119117;27;20118;-47
2022/11/28 09:58:42;;;;;;;19.50;13.45;;;8.20;99.90;;;;;;5119437;27;20035;-50
2022/11/28 10:01:38;;;;;;;22.15;13.77;;;8.10;99.90;;;;;;5118882;27;20043;-49
2022/11/28 10:04:19;;;;;;;18.77;12.63;;;8.30;99.90;;;;;;5118041;27;20382;-48
2022/11/28 10:07:18;;;;;;;22.35;13.98;;;8.40;99.90;;;;;;5100136;27;20047;-48
2022/11/28 10:10:22;;;;;;;19.02;12.35;;;8.30;99.90;;;;;;5023192;27;20036;-47
2022/11/28 10:12:47;;;;;;;18.25;12.18;;;7.60;99.90;;;;;;5096748;27;20486;-46
2022/11/28 10:15:18;;;;;;;17.88;12.23;;;8.20;99.90;;;;;;5118391;27;20050;-47
2022/11/28 10:18:18;;;;;;;17.13;11.77;;;8.30;99.90;;;;;;5119346;27;20039;-46
2022/11/28 10:20:47;;;;;;;16.75;11.80;;;7.90;99.90;;;;;;5116766;27;20040;-51
2022/11/28 10:23:24;;;;;;;19.98;12.43;;;8.10;99.90;;;;;;5118720;27;20447;-51
2022/11/28 10:25:59;;;;;;;17.45;11.57;;;8.30;99.90;;;;;;5125280;27;20175;-47
2022/11/28 10:28:30;;;;;;;18.88;11.90;;;7.60;99.90;;;;;;5121617;27;20479;-49
2022/11/28 10:31:26;;;;;;;16.98;11.25;;;7.70;99.90;;;;;;5118724;27;20043;-46
2022/11/28 10:34:00;;;;;;;15.57;11.02;;;8.30;99.90;;;;;;5120343;27;20381;-46
2022/11/28 10:36:31;;;;;;;18.38;12.00;;;7.70;99.90;;;;;;5116017;27;20191;-51
2022/11/28 10:39:00;;;;;;;16.33;10.70;;;8.30;99.90;;;;;;5124269;27;20435;-49
2022/11/28 10:41:37;;;;;;;18.15;11.50;;;8.10;99.90;;;;;;5105834;27;20044;-47
2022/11/28 10:44:17;;;;;;;15.77;11.18;;;7.70;99.90;;;;;;5119478;27;20432;-49
2022/11/28 10:46:54;;;;;;;17.20;11.75;;;7.70;99.90;;;;;;5125060;27;20042;-47
2022/11/28 10:49:29;;;;;;;19.52;12.15;;;7.70;99.90;;;;;;5120970;27;20043;-48
2022/11/28 10:52:33;;;;;;;19.27;12.68;;;8.00;99.90;;;;;;5123105;27;20080;-48
2022/11/28 10:55:10;;;;;;;18.02;11.85;;;8.40;99.90;;;;;;5121106;27;20430;-46
2022/11/28 10:58:06;;;;;;;19.55;12.25;;;8.10;99.90;;;;;;5120644;27;20507;-47
2022/11/28 11:00:34;;;;;;;19.95;12.60;;;7.80;99.90;;;;;;5097834;28;20061;-47
2022/11/28 11:03:02;;;;;;;20.48;13.07;;;8.10;99.90;;;;;;5104570;28;20051;-46
2022/11/28 11:05:33;;;;;;;20.25;13.10;;;8.60;99.90;;;;;;5107063;28;20054;-47
2022/11/28 11:08:21;;;;;;;22.08;13.13;;;8.10;99.90;;;;;;5125296;28;20031;-50
2022/11/28 11:10:57;;;;;;;20.17;12.82;;;8.50;99.90;;;;;;5126500;28;20038;-50
2022/11/28 11:13:25;;;;;;;20.83;13.52;;;8.20;99.90;;;;;;5127646;28;20031;-47
2022/11/28 11:16:09;;;;;;;20.70;14.05;;;8.50;99.90;;;;;;5121467;28;20035;-47
2022/11/28 11:18:45;;;;;;;18.55;13.10;;;8.70;99.90;;;;;;5110125;28;20470;-47
2022/11/28 11:21:22;;;;;;;19.40;12.75;;;8.10;99.90;;;;;;5110575;28;20039;-50
2022/11/28 11:23:49;;;;;;;21.20;13.73;;;8.10;99.90;;;;;;5130035;28;20043;-47
2022/11/28 11:26:24;;;;;;;22.70;14.20;;;8.00;99.90;;;;;;5129380;28;20035;-49
2022/11/28 11:28:51;;;;;;;19.92;12.80;;;8.20;99.90;;;;;;5130131;28;20039;-48
2022/11/28 11:31:24;;;;;;;20.15;12.88;;;8.50;99.90;;;;;;5130440;27;20057;-48
2022/11/28 11:33:52;;;;;;;19.58;12.88;;;8.10;99.90;;;;;;5125581;27;20074;-47
2022/11/28 11:36:33;;;;;;;18.60;12.30;;;8.60;99.90;;;;;;5125340;27;20521;-48
2022/11/28 11:39:09;;;;;;;20.88;14.15;;;8.00;99.90;;;;;;5128290;27;20035;-48
2022/11/28 11:41:37;;;;;;;21.33;13.82;;;8.00;99.90;;;;;;5129849;27;20039;-46
2022/11/28 11:44:17;;;;;;;22.58;13.35;;;8.30;99.90;;;;;;5127970;27;20529;-49
2022/11/28 11:46:53;;;;;;;21.45;13.80;;;8.70;99.90;;;;;;5126981;27;20439;-46
2022/11/28 11:49:31;;;;;;;19.70;13.52;;;8.60;99.90;;;;;;5125348;27;20042;-48
2022/11/28 11:52:02;;;;;;;22.48;14.60;;;8.50;99.90;;;;;;5127178;27;20088;-48
2022/11/28 11:54:28;;;;;;;22.05;14.30;;;8.50;99.90;;;;;;5125773;27;20031;-47
2022/11/28 11:56:57;;;;;;;23.52;14.40;;;8.60;99.90;;;;;;5126159;27;20486;-48
2022/11/28 11:59:25;;;;;;;22.90;14.48;;;8.10;99.90;;;;;;5125326;27;20462;-50
2022/11/28 12:01:57;;;;;;;23.95;14.63;;;8.50;99.90;;;;;;5123523;27;20078;-48
2022/11/28 12:04:36;;;;;;;21.05;13.50;;;8.30;99.90;;;;;;5122356;27;20038;-48
2022/11/28 12:07:06;;;;;;;19.67;13.85;;;8.40;99.90;;;;;;5103257;27;20125;-49
2022/11/28 12:09:42;;;;;;;21.25;14.20;;;8.70;99.90;;;;;;5123403;27;20041;-46
2022/11/28 12:12:20;;;;;;;19.05;13.70;;;8.10;99.90;;;;;;5103220;27;20066;-50
2022/11/28 12:14:47;;;;;;;24.85;15.02;;;8.10;99.90;;;;;;5121938;27;20032;-49
2022/11/28 12:17:56;;;;;;;25.98;14.93;;;8.80;99.90;;;;;;5122762;27;20118;-48
2022/11/28 12:21:03;;;;;;;22.27;15.10;;;8.60;99.90;;;;;;5121697;27;20446;-50
2022/11/28 12:24:02;;;;;;;22.08;14.07;;;8.40;99.90;;;;;;5119303;27;20122;-48
2022/11/28 12:26:30;;;;;;;25.42;15.98;;;8.10;99.90;;;;;;5119780;27;20068;-47
2022/11/28 12:29:18;;;;;;;24.15;15.65;;;8.30;99.90;;;;;;5120299;27;20027;-47
2022/11/28 12:31:54;;;;;;;24.77;15.25;;;8.20;99.90;;;;;;5120102;27;20058;-47
2022/11/28 12:34:31;;;;;;;22.88;15.20;;;8.40;99.90;;;;;;5119820;27;20311;-47
2022/11/28 12:37:19;;;;;;;24.90;15.65;;;8.20;99.90;;;;;;5116272;27;20039;-46
2022/11/28 12:40:00;;;;;;;22.90;14.30;;;8.20;99.90;;;;;;5096548;27;20042;-51
2022/11/28 12:42:56;;;;;;;23.42;15.55;;;8.20;99.90;;;;;;5116953;27;20483;-46
2022/11/28 12:46:07;;;;;;;23.83;14.90;;;8.20;99.90;;;;;;5117091;27;20035;-49
2022/11/28 12:48:44;;;;;;;22.95;14.43;;;8.30;99.90;;;;;;5120211;27;20043;-51
2022/11/28 12:51:45;;;;;;;23.50;15.48;;;8.20;99.90;;;;;;5117973;27;20054;-46
2022/11/28 12:54:38;;;;;;;22.50;14.40;;;8.60;99.90;;;;;;5116220;27;20053;-49
2022/11/28 12:57:22;;;;;;;24.67;15.23;;;8.60;99.90;;;;;;5116791;27;20031;-47
2022/11/28 13:00:09;;;;;;;24.70;15.93;;;8.50;99.90;;;;;;5116980;27;20043;-47
2022/11/28 13:02:56;;;;;;;27.30;15.80;;;8.20;99.90;;;;;;5117920;27;20039;-48
2022/11/28 13:05:29;;;;;;;28.17;15.75;;;8.80;99.90;;;;;;5120460;27;20474;-48
2022/11/28 13:08:10;;;;;;;27.48;16.13;;;8.90;99.90;;;;;;5121701;27;20135;-48